RJOI(METAR)
05/24 12:55
METAR RJOI 240355Z 08005KT 9999 FEW030 23/14 A2993 RMK SLP134
T02330144=
戻る
トップページへ戻る
IMOC Co,.Ltd.